Terminal Aerodrome Forecast
Issued by NWS

Home | Current Version | Previous Version | Text Only | Print | Product List | Glossary On
Versions: 1 2 3 4 5 6 7 8 9 10 11 12 13 14 15 16 17 18 19 20 21 22 23 24 25 26 27
000
FTUS45 KGJT 200528
TAFDRO
TAF
KDRO 200528Z 2006/2106 01005KT P6SM SKC
     FM200900 03003KT P6SM SKC
     FM201900 17008KT P6SM FEW110
     FM202200 02009KT P6SM VCSH SCT100 BKN200
     FM210100 04010G17KT P6SM VCTS SCT090CB BKN150=

USA.gov is the U.S. government's official web portal to all federal, state and local government web resources and services.